Time;durP1;ratioP1;P1;durP2;ratioP2;P2;SDS_P1;SDS_P2;PMS_P1;PMS_P2;Temp;Humidity;BMP_temperature;BMP_pressure;BME280_temperature;BME280_humidity;BME280_pressure;Samples;Min_cycle;Max_cycle;Signal;HPM_P1;HPM_P2
2022/05/02 00:00:00;;;;;;;12.73;8.60;;;;;;;14.09;67.14;100835.13;5024324;28;20699;-68
2022/05/02 00:02:27;;;;;;;13.97;7.80;;;;;;;14.07;67.18;100829.13;5022122;28;20634;-67
2022/05/02 00:04:57;;;;;;;11.23;7.70;;;;;;;14.05;67.18;100829.28;5023903;28;20215;-67
2022/05/02 00:07:25;;;;;;;11.50;7.93;;;;;;;14.03;67.19;100825.94;5022391;28;20222;-68
2022/05/02 00:09:52;;;;;;;13.90;8.17;;;;;;;14.03;66.96;100825.94;5025181;28;20305;-69
2022/05/02 00:12:22;;;;;;;12.40;8.50;;;;;;;14.03;66.74;100828.63;5018767;28;20213;-69
2022/05/02 00:14:50;;;;;;;13.07;8.10;;;;;;;14.01;66.69;100824.44;5024511;28;20205;-67
2022/05/02 00:17:18;;;;;;;13.07;7.87;;;;;;;13.97;67.00;100820.44;5022810;28;20215;-68
2022/05/02 00:19:46;;;;;;;11.70;7.53;;;;;;;13.94;66.97;100819.75;5022170;28;20217;-68
2022/05/02 00:22:15;;;;;;;12.47;7.70;;;;;;;13.92;67.16;100810.25;5023140;28;20261;-68
2022/05/02 00:24:42;;;;;;;12.10;8.03;;;;;;;13.90;67.29;100815.72;5023055;28;20691;-68
2022/05/02 00:27:10;;;;;;;9.77;7.37;;;;;;;13.88;67.04;100815.06;5020290;28;20640;-68
2022/05/02 00:29:39;;;;;;;12.60;7.27;;;;;;;13.86;66.94;100813.56;5020738;28;20706;-68
2022/05/02 00:32:09;;;;;;;15.30;8.57;;;;;;;13.87;66.83;100812.56;5022499;28;20226;-68
2022/05/02 00:34:37;;;;;;;11.90;8.10;;;;;;;13.86;66.84;100814.41;5022443;28;20579;-68
2022/05/02 00:37:05;;;;;;;10.00;7.10;;;;;;;13.82;66.79;100802.38;5023209;28;20217;-68
2022/05/02 00:39:34;;;;;;;10.23;7.53;;;;;;;13.80;66.84;100806.22;5024718;28;20662;-68
2022/05/02 00:42:02;;;;;;;11.80;7.63;;;;;;;13.78;67.17;100802.88;5025832;28;20241;-68
2022/05/02 00:44:30;;;;;;;10.13;7.50;;;;;;;13.76;67.16;100803.03;5022841;28;20250;-69
2022/05/02 00:46:57;;;;;;;13.17;7.50;;;;;;;13.74;67.16;100796.19;5023662;28;20220;-68
2022/05/02 00:49:25;;;;;;;11.30;7.60;;;;;;;13.72;67.08;100795.53;5020766;28;20610;-68
2022/05/02 00:51:55;;;;;;;11.73;7.63;;;;;;;13.71;67.11;100793.84;5022302;28;20204;-69
2022/05/02 00:54:24;;;;;;;11.93;7.13;;;;;;;13.69;67.21;100788.69;5023274;28;20200;-68
2022/05/02 00:57:03;;;;;;;9.00;6.93;;;;;;;13.69;67.02;100795.84;5022268;28;20652;-67
2022/05/02 00:59:33;;;;;;;12.77;8.10;;;;;;;13.66;66.87;100791.66;5022939;28;20230;-69
2022/05/02 01:02:02;;;;;;;10.93;7.57;;;;;;;13.65;67.06;100794.47;5022451;28;20234;-69
2022/05/02 01:04:29;;;;;;;10.60;7.60;;;;;;;13.63;67.04;100797.31;5021215;28;20213;-68
2022/05/02 01:07:12;;;;;;;12.77;7.37;;;;;;;13.61;66.86;100791.31;5022408;28;20206;-67
2022/05/02 01:09:47;;;;;;;11.00;7.53;;;;;;;13.58;67.05;100794.28;5023159;28;20716;-67
2022/05/02 01:12:20;;;;;;;14.17;7.87;;;;;;;13.57;66.90;100792.59;5020227;28;20205;-69
2022/05/02 01:14:50;;;;;;;14.70;7.47;;;;;;;13.56;67.03;100796.25;5023227;28;20201;-69
2022/05/02 01:17:18;;;;;;;9.70;7.43;;;;;;;13.52;66.89;100792.25;5024226;28;20207;-67
2022/05/02 01:19:47;;;;;;;13.40;7.33;;;;;;;13.51;67.00;100787.94;5018052;28;20206;-68
2022/05/02 01:22:16;;;;;;;16.57;7.63;;;;;;;13.49;66.94;100789.91;5021458;28;20233;-68
2022/05/02 01:24:45;;;;;;;10.90;7.70;;;;;;;13.47;67.25;100781.22;5023946;28;20223;-67
2022/05/02 01:27:16;;;;;;;12.73;7.33;;;;;;;13.46;67.17;100777.72;5021199;28;20208;-67
2022/05/02 01:29:46;;;;;;;11.07;7.43;;;;;;;13.44;67.30;100777.09;5021440;28;20208;-68
2022/05/02 01:32:15;;;;;;;12.27;6.53;;;;;;;13.44;67.20;100777.09;5020978;28;20215;-68
2022/05/02 01:34:44;;;;;;;14.03;7.43;;;;;;;13.44;67.02;100776.25;5022400;28;20713;-68
2022/05/02 01:37:14;;;;;;;12.47;7.17;;;;;;;13.44;66.91;100773.59;5024306;28;20696;-68
2022/05/02 01:39:47;;;;;;;11.70;6.93;;;;;;;13.41;66.86;100773.88;5021264;28;20209;-68
2022/05/02 01:42:17;;;;;;;16.60;7.93;;;;;;;13.38;67.17;100774.19;5021084;28;20636;-68
2022/05/02 01:44:45;;;;;;;11.03;7.07;;;;;;;13.36;67.39;100777.03;5021151;28;20207;-69
2022/05/02 01:47:13;;;;;;;10.27;7.23;;;;;;;13.35;67.33;100777.19;5024455;28;20324;-68
2022/05/02 01:49:41;;;;;;;11.63;7.13;;;;;;;13.36;67.28;100778.88;5023348;28;20329;-68
2022/05/02 01:52:09;;;;;;;10.70;6.57;;;;;;;13.35;67.19;100777.19;5022699;28;20207;-68
2022/05/02 01:54:36;;;;;;;11.27;7.40;;;;;;;13.31;67.05;100776.66;5022211;28;20209;-68
2022/05/02 01:57:06;;;;;;;10.20;7.17;;;;;;;13.31;67.29;100767.84;5022445;28;20240;-69
2022/05/02 01:59:34;;;;;;;8.90;7.27;;;;;;;13.29;67.23;100769.81;5022777;28;20307;-68
2022/05/02 02:02:01;;;;;;;13.97;7.23;;;;;;;13.30;67.09;100768.81;5019961;28;20666;-68
2022/05/02 02:07:16;;;;;;;11.77;6.80;;;;;;;13.24;67.57;100761.47;5022991;28;20683;-68
2022/05/02 02:09:46;;;;;;;11.37;7.00;;;;;;;13.23;67.36;100767.78;5019167;28;20213;-68
2022/05/02 02:12:15;;;;;;;13.17;6.83;;;;;;;13.18;67.53;100765.63;5021768;28;20197;-68
2022/05/02 02:14:47;;;;;;;9.37;6.97;;;;;;;13.17;67.76;100761.28;5022480;28;20250;-69
2022/05/02 02:17:16;;;;;;;10.20;7.17;;;;;;;13.18;67.72;100760.28;5021331;28;20208;-67
2022/05/02 02:19:44;;;;;;;10.93;7.30;;;;;;;13.17;67.60;100756.78;5018871;28;20205;-67
2022/05/02 02:22:18;;;;;;;10.97;7.00;;;;;;;13.15;67.68;100756.09;5021693;28;20225;-69
2022/05/02 02:24:49;;;;;;;11.10;7.73;;;;;;;13.16;67.75;100752.47;5021716;28;20212;-68
2022/05/02 02:27:18;;;;;;;11.70;7.20;;;;;;;13.15;67.87;100756.09;5022389;28;20581;-67
2022/05/02 02:29:51;;;;;;;8.83;6.83;;;;;;;13.14;68.04;100759.75;5019028;28;20219;-67
2022/05/02 02:32:23;;;;;;;12.67;7.77;;;;;;;13.11;68.19;100760.03;5020763;28;20214;-68
2022/05/02 02:34:50;;;;;;;14.07;7.67;;;;;;;13.13;68.00;100746.56;5020012;28;20311;-68
2022/05/02 02:37:19;;;;;;;14.67;7.67;;;;;;;13.13;67.84;100747.44;5021887;28;20219;-68
2022/05/02 02:39:47;;;;;;;12.23;7.27;;;;;;;13.11;67.77;100746.72;5019802;28;20228;-68
2022/05/02 02:42:15;;;;;;;13.23;7.43;;;;;;;13.10;67.84;100749.56;5019351;28;20602;-68
2022/05/02 02:44:44;;;;;;;10.53;6.67;;;;;;;13.09;68.08;100751.41;5020805;28;20409;-67
2022/05/02 02:47:13;;;;;;;11.00;7.10;;;;;;;13.07;68.33;100748.03;5024025;28;20221;-67
2022/05/02 02:49:41;;;;;;;9.70;7.00;;;;;;;13.07;68.35;100742.72;5023290;28;20255;-69
2022/05/02 02:52:09;;;;;;;13.20;7.17;;;;;;;13.05;68.01;100747.38;5025236;28;20252;-67
2022/05/02 02:54:36;;;;;;;9.10;7.63;;;;;;;13.07;67.98;100748.03;5026021;28;20585;-68
2022/05/02 02:57:07;;;;;;;11.27;7.20;;;;;;;13.05;67.95;100742.03;5022802;28;20238;-67
2022/05/02 02:59:39;;;;;;;13.37;7.03;;;;;;;13.04;67.81;100747.50;5025311;28;20216;-67
2022/05/02 03:02:10;;;;;;;12.43;7.57;;;;;;;13.01;68.01;100739.88;5023546;28;20212;-68
2022/05/02 03:07:27;;;;;;;11.43;7.57;;;;;;;12.97;68.00;100736.66;5023709;28;20209;-68
2022/05/02 03:09:57;;;;;;;12.17;8.07;;;;;;;12.95;67.77;100733.31;5023893;28;20213;-68
2022/05/02 03:12:27;;;;;;;14.27;7.93;;;;;;;12.94;68.03;100734.31;5024647;28;20213;-68
2022/05/02 03:14:54;;;;;;;12.30;8.03;;;;;;;12.94;67.65;100736.97;5022371;28;20851;-68
2022/05/02 03:17:23;;;;;;;11.30;7.73;;;;;;;12.92;67.62;100728.31;5024990;28;20209;-69
2022/05/02 03:19:51;;;;;;;12.50;8.03;;;;;;;12.88;67.83;100734.94;5021418;28;20223;-67
2022/05/02 03:22:19;;;;;;;13.97;7.90;;;;;;;12.87;67.82;100735.09;5021713;28;20684;-67
2022/05/02 03:24:47;;;;;;;13.77;8.07;;;;;;;12.85;67.80;100727.25;5021783;28;20205;-68
2022/05/02 03:27:15;;;;;;;11.17;7.93;;;;;;;12.82;67.87;100722.28;5022914;28;20223;-68
2022/05/02 03:29:43;;;;;;;15.60;8.93;;;;;;;12.82;68.06;100727.59;5023639;28;20223;-68
2022/05/02 03:34:54;;;;;;;10.77;7.47;;;;;;;12.81;67.82;100725.91;5020320;28;20215;-67
2022/05/02 03:37:22;;;;;;;11.87;7.33;;;;;;;12.80;67.84;100725.09;5021900;28;20223;-67
2022/05/02 03:39:50;;;;;;;9.73;7.40;;;;;;;12.77;67.86;100724.53;5024059;28;20201;-67
2022/05/02 03:42:17;;;;;;;11.43;6.97;;;;;;;12.77;67.80;100713.91;5026230;28;20670;-68
2022/05/02 03:44:45;;;;;;;14.13;7.40;;;;;;;12.77;67.94;100719.22;5022805;28;20593;-69
2022/05/02 03:47:13;;;;;;;13.17;7.60;;;;;;;12.76;67.44;100714.91;5022321;28;20233;-67
2022/05/02 03:49:41;;;;;;;10.10;6.87;;;;;;;12.74;67.60;100715.06;5024138;28;20248;-67
2022/05/02 03:52:10;;;;;;;11.80;7.37;;;;;;;12.75;67.79;100715.91;5024786;28;20212;-68
2022/05/02 03:54:38;;;;;;;13.53;7.60;;;;;;;12.74;67.79;100719.56;5024797;28;20213;-68
2022/05/02 03:57:06;;;;;;;9.87;7.87;;;;;;;12.73;67.57;100725.88;5022785;28;20215;-67
2022/05/02 03:59:34;;;;;;;13.87;9.03;;;;;;;12.71;67.49;100714.53;5024655;28;20212;-68
2022/05/02 04:02:01;;;;;;;12.23;8.30;;;;;;;12.71;67.54;100720.69;5021761;28;20242;-68
2022/05/02 04:04:29;;;;;;;13.50;8.43;;;;;;;12.71;67.68;100717.19;5024149;28;20229;-68
2022/05/02 04:06:57;;;;;;;14.07;8.57;;;;;;;12.69;67.70;100717.34;5021559;28;20212;-68
2022/05/02 04:09:26;;;;;;;14.17;8.43;;;;;;;12.69;67.65;100724.50;5023930;28;20216;-67
2022/05/02 04:11:54;;;;;;;12.23;8.70;;;;;;;12.69;67.58;100708.53;5023933;28;20204;-67
2022/05/02 04:14:22;;;;;;;11.27;8.10;;;;;;;12.67;67.87;100715.81;5023041;28;20239;-67
2022/05/02 04:16:50;;;;;;;12.67;8.47;;;;;;;12.69;67.76;100716.50;5024688;28;20372;-67
2022/05/02 04:19:19;;;;;;;14.13;8.37;;;;;;;12.68;67.81;100718.34;5021527;28;20223;-68
2022/05/02 04:21:46;;;;;;;15.43;8.67;;;;;;;12.69;67.97;100716.50;5025869;28;20658;-67
2022/05/02 04:24:24;;;;;;;13.33;8.50;;;;;;;12.71;67.91;100726.03;5021452;28;20245;-67
2022/05/02 04:26:53;;;;;;;12.90;8.93;;;;;;;12.70;67.69;100728.81;5023941;28;20302;-68
2022/05/02 04:29:21;;;;;;;12.57;7.97;;;;;;;12.72;67.61;100724.19;5022775;28;20231;-68
2022/05/02 04:31:49;;;;;;;13.87;8.60;;;;;;;12.72;67.89;100725.03;5024877;28;20230;-67
2022/05/02 04:34:16;;;;;;;12.60;8.63;;;;;;;12.72;67.82;100725.03;5024324;28;20578;-68
2022/05/02 04:36:44;;;;;;;13.50;8.23;;;;;;;12.73;67.83;100723.22;5024068;28;20347;-68
2022/05/02 04:39:12;;;;;;;14.13;8.80;;;;;;;12.75;67.45;100723.91;5023395;28;20308;-68
2022/05/02 04:41:39;;;;;;;13.70;8.27;;;;;;;12.76;67.75;100729.03;5025995;28;20204;-69
2022/05/02 04:44:09;;;;;;;11.03;7.57;;;;;;;12.76;67.95;100737.00;5020425;28;20235;-68
2022/05/02 04:46:36;;;;;;;16.80;8.80;;;;;;;12.76;67.80;100726.38;5021822;28;20209;-67
2022/05/02 04:49:04;;;;;;;12.47;8.80;;;;;;;12.78;67.92;100724.41;5022828;28;20319;-67
2022/05/02 04:51:32;;;;;;;13.53;8.93;;;;;;;12.80;68.05;100724.25;5024811;28;20974;-67
2022/05/02 04:53:59;;;;;;;14.43;10.13;;;;;;;13.00;67.89;100728.38;5021591;28;20473;-68
2022/05/02 04:56:27;;;;;;;13.77;9.03;;;;;;;12.95;67.61;100728.00;5023901;28;20296;-69
2022/05/02 04:58:55;;;;;;;12.07;9.37;;;;;;;12.93;68.03;100727.31;5021678;28;20216;-70
2022/05/02 05:01:25;;;;;;;13.07;9.20;;;;;;;12.94;67.93;100723.66;5025958;28;20233;-69
2022/05/02 05:03:53;;;;;;;13.70;9.70;;;;;;;12.93;67.86;100723.84;5026232;28;20259;-70
2022/05/02 05:06:21;;;;;;;14.37;9.33;;;;;;;12.94;67.84;100726.31;5026694;28;20207;-71
2022/05/02 05:08:48;;;;;;;13.80;9.60;;;;;;;12.96;68.28;100731.50;5025672;28;20224;-70
2022/05/02 05:11:36;;;;;;;13.37;9.10;;;;;;;12.98;68.26;100727.69;5021902;28;20256;-70
2022/05/02 05:17:22;;;;;;;16.77;9.63;;;;;;;13.01;68.28;100737.19;5026992;28;20236;-71
2022/05/02 05:20:04;;;;;;;14.70;9.23;;;;;;;13.01;68.22;100727.38;5026476;28;20208;-70
2022/05/02 05:22:46;;;;;;;15.73;9.40;;;;;;;13.03;68.31;100736.03;5016018;28;20221;-70
2022/05/02 05:25:23;;;;;;;14.60;9.73;;;;;;;13.01;68.31;100734.53;5024084;28;20209;-70
2022/05/02 05:28:05;;;;;;;16.33;9.93;;;;;;;13.01;68.81;100732.72;5022190;28;21622;-70
2022/05/02 05:30:38;;;;;;;12.77;9.13;;;;;;;13.04;68.68;100740.38;5027343;28;20316;-71
2022/05/02 05:33:22;;;;;;;13.77;9.77;;;;;;;13.06;68.71;100732.22;5026425;28;20201;-70
2022/05/02 05:36:03;;;;;;;13.50;9.67;;;;;;;13.08;68.67;100730.25;5023923;28;20208;-71
2022/05/02 05:38:40;;;;;;;15.17;10.07;;;;;;;13.13;68.51;100728.81;5021644;28;20215;-71
2022/05/02 05:41:20;;;;;;;13.83;9.60;;;;;;;13.15;68.63;100728.66;5026634;28;20235;-71
2022/05/02 05:43:58;;;;;;;13.20;9.40;;;;;;;13.18;68.46;100731.84;5022718;28;20634;-70
2022/05/02 05:46:52;;;;;;;16.23;10.10;;;;;;;13.23;68.23;100735.84;5026442;28;20219;-69
2022/05/02 05:49:31;;;;;;;16.83;9.80;;;;;;;13.29;68.32;100729.88;4992159;28;20282;-71
2022/05/02 05:52:05;;;;;;;14.17;9.70;;;;;;;13.32;68.32;100729.56;5025296;28;20287;-69
2022/05/02 05:54:40;;;;;;;12.10;9.27;;;;;;;13.34;68.02;100722.25;5025644;28;20631;-70
2022/05/02 05:57:22;;;;;;;12.87;9.30;;;;;;;13.39;67.86;100730.59;5025095;28;20205;-69
2022/05/02 06:00:01;;;;;;;15.30;8.80;;;;;;;13.42;67.81;100719.63;5023601;28;20218;-70
2022/05/02 06:02:48;;;;;;;17.60;11.07;;;;;;;13.45;67.73;100724.63;5022109;28;20256;-70
2022/05/02 06:05:22;;;;;;;16.07;9.20;;;;;;;13.47;67.62;100727.94;5020153;28;20229;-70
2022/05/02 06:07:56;;;;;;;14.73;8.43;;;;;;;13.51;68.24;100724.81;5024952;28;20782;-70
2022/05/02 06:10:25;;;;;;;15.03;8.93;;;;;;;13.54;67.67;100731.66;5025444;28;20212;-70
2022/05/02 06:12:55;;;;;;;15.90;9.07;;;;;;;13.56;67.82;100733.16;5024886;28;20298;-70
2022/05/02 06:18:29;;;;;;;14.63;8.80;;;;;;;13.64;67.73;100740.34;5024742;28;20223;-70
2022/05/02 06:21:14;;;;;;;15.40;9.23;;;;;;;13.68;68.06;100747.03;5026359;28;20205;-70
2022/05/02 06:23:46;;;;;;;14.93;9.03;;;;;;;13.67;68.13;100750.69;5030427;28;20300;-70
2022/05/02 06:26:15;;;;;;;17.30;8.87;;;;;;;13.69;68.08;100742.53;5025993;28;20204;-70
2022/05/02 06:28:44;;;;;;;12.87;8.77;;;;;;;13.75;69.25;100744.53;5022885;28;20299;-72
2022/05/02 06:31:20;;;;;;;13.67;9.37;;;;;;;13.87;68.78;100736.09;5024861;28;20256;-71
2022/05/02 06:33:50;;;;;;;16.17;8.90;;;;;;;13.99;68.23;100741.09;5027379;28;20211;-68
2022/05/02 06:36:56;;;;;;;15.37;9.20;;;;;;;14.13;67.15;100735.97;5024628;28;20298;-71
2022/05/02 06:39:36;;;;;;;16.27;9.43;;;;;;;14.19;66.58;100737.13;5014287;28;20278;-71
2022/05/02 06:42:22;;;;;;;17.37;8.57;;;;;;;14.23;66.54;100739.34;5029156;28;20276;-70
2022/05/02 06:45:02;;;;;;;18.33;8.40;;;;;;;14.22;66.65;100731.50;5026257;28;20317;-70
2022/05/02 06:47:39;;;;;;;14.23;9.70;;;;;;;14.29;66.34;100729.81;5021164;28;20405;-70
2022/05/02 06:50:21;;;;;;;16.17;9.17;;;;;;;14.30;66.56;100726.16;4985262;28;20214;-70
2022/05/02 06:53:01;;;;;;;13.77;9.53;;;;;;;14.36;66.44;100727.31;4986037;28;20691;-70
2022/05/02 06:55:37;;;;;;;17.70;9.30;;;;;;;14.38;66.24;100728.81;4983087;28;20307;-70
2022/05/02 06:58:22;;;;;;;15.63;9.43;;;;;;;14.44;65.90;100722.84;4993146;28;20217;-67
2022/05/02 07:01:09;;;;;;;18.97;9.03;;;;;;;14.48;65.88;100723.34;4990730;28;20213;-68
2022/05/02 07:03:55;;;;;;;12.47;8.47;;;;;;;14.51;66.01;100723.03;4986841;28;20217;-69
2022/05/02 07:06:44;;;;;;;14.10;9.00;;;;;;;14.54;65.85;100722.69;4980962;28;20240;-68
2022/05/02 07:09:22;;;;;;;13.07;9.03;;;;;;;14.61;65.79;100732.50;4979546;28;20208;-67
2022/05/02 07:12:03;;;;;;;16.90;10.63;;;;;;;14.66;65.21;100738.19;4994327;28;20210;-68
2022/05/02 07:14:39;;;;;;;15.50;9.00;;;;;;;14.71;65.35;100739.50;4993140;28;20219;-68
2022/05/02 07:17:36;;;;;;;13.37;9.43;;;;;;;14.74;64.99;100741.84;4980508;28;20217;-68
2022/05/02 07:20:05;;;;;;;12.10;8.40;;;;;;;14.78;64.86;100738.66;4993385;28;20697;-68
2022/05/02 07:22:37;;;;;;;13.63;9.03;;;;;;;14.81;65.55;100734.84;4987099;28;20741;-67
2022/05/02 07:25:15;;;;;;;11.60;9.00;;;;;;;14.84;64.96;100740.69;4983720;28;20253;-68
2022/05/02 07:27:58;;;;;;;14.27;9.13;;;;;;;14.86;64.34;100735.19;4985179;28;20300;-68
2022/05/02 07:30:26;;;;;;;11.13;7.97;;;;;;;14.91;63.90;100736.31;4989727;28;20639;-67
2022/05/02 07:32:56;;;;;;;11.80;8.80;;;;;;;14.96;64.33;100743.81;4989931;28;20441;-69
2022/05/02 07:35:25;;;;;;;15.93;8.17;;;;;;;15.00;64.74;100735.31;4990295;28;20210;-68
2022/05/02 07:37:54;;;;;;;13.73;9.23;;;;;;;15.08;64.13;100734.44;4991441;28;20219;-69
2022/05/02 07:40:25;;;;;;;15.10;10.07;;;;;;;15.13;65.66;100737.44;4990361;28;20614;-69
2022/05/02 07:42:54;;;;;;;17.13;10.50;;;;;;;15.18;64.99;100736.94;4982321;28;20210;-69
2022/05/02 07:45:27;;;;;;;21.27;9.03;;;;;;;15.25;64.65;100733.41;4986357;28;20230;-68
2022/05/02 07:47:57;;;;;;;13.30;9.07;;;;;;;15.30;64.13;100736.38;4995368;28;20270;-69
2022/05/02 07:50:27;;;;;;;13.77;9.90;;;;;;;15.37;64.20;100726.69;5021975;28;20662;-69
2022/05/02 07:52:58;;;;;;;12.70;9.50;;;;;;;15.46;63.38;100730.16;5024571;28;20596;-69
2022/05/02 07:55:30;;;;;;;12.87;9.17;;;;;;;15.55;63.42;100728.31;5026303;28;20221;-69
2022/05/02 07:57:59;;;;;;;17.33;9.60;;;;;;;15.59;63.48;100730.47;5020202;28;20201;-69
2022/05/02 08:00:27;;;;;;;11.37;8.43;;;;;;;15.72;63.29;100729.91;5023250;28;20236;-69
2022/05/02 08:02:54;;;;;;;16.57;10.23;;;;;;;15.80;63.81;100729.88;5027929;28;20217;-69
2022/05/02 08:05:27;;;;;;;14.43;10.07;;;;;;;15.84;63.05;100722.31;5023347;28;20298;-70
2022/05/02 08:08:12;;;;;;;12.43;9.10;;;;;;;15.93;62.53;100732.78;5020044;28;20217;-69
2022/05/02 08:10:55;;;;;;;12.67;8.80;;;;;;;15.99;62.52;100729.41;5023422;28;20224;-70
2022/05/02 08:13:37;;;;;;;18.10;10.20;;;;;;;16.09;63.38;100726.50;5021344;28;20292;-69
2022/05/02 08:16:15;;;;;;;15.87;10.00;;;;;;;16.17;63.74;100729.97;5020414;28;20203;-69
2022/05/02 08:19:00;;;;;;;13.77;10.13;;;;;;;16.25;62.49;100731.75;5024607;28;20208;-69
2022/05/02 08:21:33;;;;;;;15.53;10.67;;;;;;;16.31;61.92;100724.84;5026452;28;20664;-70
2022/05/02 08:27:41;;;;;;;12.47;8.20;;;;;;;16.35;61.24;100736.88;5021230;28;20213;-71
2022/05/02 08:30:10;;;;;;;15.27;9.73;;;;;;;16.24;60.77;100731.91;4947864;29;20219;-71
2022/05/02 08:32:59;;;;;;;14.20;10.23;;;;;;;16.12;62.00;100732.31;5000986;28;20207;-71
2022/05/02 08:35:48;;;;;;;13.47;8.30;;;;;;;16.10;61.72;100736.19;5018095;28;20217;-72
2022/05/02 08:38:48;;;;;;;13.17;8.77;;;;;;;16.17;61.75;100731.81;5020931;28;20315;-70
2022/05/02 08:41:41;;;;;;;14.77;10.00;;;;;;;16.25;61.43;100726.41;5023177;28;20216;-70
2022/05/02 08:44:43;;;;;;;15.57;10.07;;;;;;;16.31;61.05;100722.16;5027513;28;20650;-70
2022/05/02 08:47:40;;;;;;;16.17;10.43;;;;;;;16.39;60.98;100728.28;5019774;28;20282;-71
2022/05/02 08:50:20;;;;;;;15.70;9.63;;;;;;;16.60;61.41;100732.97;4981379;28;20218;-70
2022/05/02 08:53:16;;;;;;;14.77;10.03;;;;;;;16.72;61.75;100731.53;4980153;28;20222;-71
2022/05/02 08:56:15;;;;;;;16.17;10.30;;;;;;;16.88;61.70;100722.53;4986595;28;20706;-71
2022/05/02 08:59:15;;;;;;;14.63;9.67;;;;;;;17.06;60.61;100722.19;4987129;28;20663;-71
2022/05/02 09:02:24;;;;;;;13.90;10.50;;;;;;;17.19;60.17;100725.88;4989242;28;20655;-71
2022/05/02 09:05:23;;;;;;;15.87;10.33;;;;;;;17.29;60.41;100720.22;4923257;28;20310;-71
2022/05/02 09:08:08;;;;;;;12.87;9.37;;;;;;;17.37;59.62;100721.97;4988062;28;20640;-69
2022/05/02 09:10:57;;;;;;;15.27;9.57;;;;;;;17.46;59.13;100710.13;4976564;28;20664;-69
2022/05/02 09:13:57;;;;;;;19.63;10.60;;;;;;;17.55;59.76;100714.38;4982491;28;20358;-69
2022/05/02 09:16:54;;;;;;;16.67;9.40;;;;;;;17.68;59.59;100707.34;4977383;28;20370;-70
2022/05/02 09:19:54;;;;;;;12.27;8.73;;;;;;;17.77;57.68;100704.53;4973357;28;20627;-71
2022/05/02 09:23:05;;;;;;;10.40;8.60;;;;;;;17.75;58.58;100709.28;4985077;28;20229;-71
2022/05/02 09:25:58;;;;;;;12.27;8.57;;;;;;;17.74;58.44;100704.94;4971180;28;20206;-70
2022/05/02 09:28:31;;;;;;;14.13;9.03;;;;;;;17.87;57.83;100705.91;4986863;28;20696;-71
2022/05/02 09:31:38;;;;;;;15.63;9.30;;;;;;;18.01;58.25;100706.91;4986132;28;20217;-71
2022/05/02 09:34:17;;;;;;;13.13;8.60;;;;;;;17.99;57.43;100695.53;4927852;29;20274;-72
2022/05/02 09:36:55;;;;;;;15.83;9.50;;;;;;;18.03;57.33;100700.31;4981256;28;20288;-71
2022/05/02 09:39:37;;;;;;;12.23;9.13;;;;;;;18.11;56.61;100694.00;4983505;28;20312;-71
2022/05/02 09:42:34;;;;;;;11.90;8.43;;;;;;;18.26;56.85;100697.44;4986495;28;20206;-71
2022/05/02 09:51:24;;;;;;;17.13;9.57;;;;;;;18.62;54.55;100685.78;5026339;28;20720;-70
2022/05/02 09:54:03;;;;;;;11.43;8.57;;;;;;;18.76;53.77;100688.38;5027352;28;20309;-70
2022/05/02 09:56:38;;;;;;;15.43;9.33;;;;;;;18.75;54.67;100685.88;5024649;28;20209;-71
2022/05/02 09:59:08;;;;;;;11.50;8.93;;;;;;;18.87;52.93;100678.94;5026340;28;20218;-70
2022/05/02 10:01:43;;;;;;;12.80;8.73;;;;;;;18.95;53.35;100673.41;5026984;28;20208;-71
2022/05/02 10:04:36;;;;;;;13.90;8.80;;;;;;;19.03;52.85;100675.94;5024141;28;20270;-71
2022/05/02 10:07:08;;;;;;;13.73;8.70;;;;;;;19.08;53.59;100664.59;5022935;28;20224;-70
2022/05/02 10:10:00;;;;;;;15.33;9.17;;;;;;;19.16;54.07;100670.66;5025401;28;20209;-70
2022/05/02 10:12:40;;;;;;;11.70;8.83;;;;;;;19.25;54.17;100662.41;5026105;28;20666;-70
2022/05/02 10:15:34;;;;;;;12.40;8.87;;;;;;;19.40;53.18;100666.63;5023320;28;20208;-71
2022/05/02 10:18:17;;;;;;;13.17;9.07;;;;;;;19.47;53.09;100658.56;5014744;28;20208;-71
2022/05/02 10:21:02;;;;;;;15.47;8.60;;;;;;;19.53;53.56;100665.84;5021513;28;20559;-72
2022/05/02 10:23:45;;;;;;;14.13;8.93;;;;;;;19.66;52.69;100652.44;5022930;28;20213;-71
2022/05/02 10:26:26;;;;;;;15.70;9.00;;;;;;;19.80;51.77;100653.31;5024551;28;20248;-71
2022/05/02 10:29:36;;;;;;;12.40;9.13;;;;;;;19.88;52.73;100653.09;5026538;28;20204;-72
2022/05/02 10:32:06;;;;;;;13.60;9.40;;;;;;;19.96;51.63;100641.34;5023120;28;20205;-72
2022/05/02 10:34:37;;;;;;;12.63;9.03;;;;;;;20.11;51.16;100632.03;5023421;28;20213;-72
2022/05/02 10:37:07;;;;;;;10.93;8.53;;;;;;;20.17;49.59;100643.84;5025114;28;20660;-72
2022/05/02 10:39:46;;;;;;;10.07;8.90;;;;;;;20.24;49.51;100639.28;5024684;28;20672;-72
2022/05/02 10:42:25;;;;;;;13.67;9.37;;;;;;;20.33;50.13;100632.66;5023955;28;20458;-72
2022/05/02 10:44:57;;;;;;;12.73;8.10;;;;;;;20.42;49.24;100628.75;5024349;28;20299;-73
2022/05/02 10:47:27;;;;;;;14.27;8.50;;;;;;;20.59;49.40;100631.81;5026140;28;20779;-74
2022/05/02 10:50:08;;;;;;;12.83;8.60;;;;;;;20.74;48.63;100623.53;5022416;28;20237;-74
2022/05/02 10:52:52;;;;;;;12.27;8.23;;;;;;;20.84;47.80;100623.94;5022266;28;20209;-72
2022/05/02 10:55:25;;;;;;;14.00;8.37;;;;;;;21.03;48.39;100634.63;5022911;28;20254;-73
2022/05/02 10:57:54;;;;;;;12.50;7.80;;;;;;;21.23;46.89;100626.50;5021492;28;20636;-73
2022/05/02 11:00:24;;;;;;;13.07;8.07;;;;;;;21.31;47.10;100620.88;5029628;28;20209;-73
2022/05/02 11:03:15;;;;;;;10.80;7.73;;;;;;;21.36;47.29;100621.06;5027507;28;20650;-73
2022/05/02 11:05:57;;;;;;;11.40;7.27;;;;;;;21.51;46.52;100626.16;5027699;28;20625;-74
2022/05/02 11:08:31;;;;;;;11.47;7.30;;;;;;;21.55;44.85;100621.19;5030512;28;20375;-74
2022/05/02 11:11:05;;;;;;;11.27;6.83;;;;;;;21.65;44.32;100621.50;5029264;28;20266;-72
2022/05/02 11:13:41;;;;;;;12.67;7.90;;;;;;;21.78;43.39;100626.84;5031472;28;20213;-72
2022/05/02 11:16:23;;;;;;;9.38;7.45;;;;;;;21.92;43.97;100622.16;5029593;28;20685;-73
2022/05/02 11:22:03;;;;;;;11.30;7.18;;;;;;;22.31;42.50;100610.28;5028215;28;20212;-72
2022/05/02 11:24:47;;;;;;;10.93;7.05;;;;;;;22.32;43.05;100603.81;5029212;28;20209;-71
2022/05/02 11:27:27;;;;;;;9.65;7.53;;;;;;;22.57;43.69;100604.63;5024575;28;20238;-71
2022/05/02 11:30:09;;;;;;;11.32;7.00;;;;;;;22.52;42.15;100602.56;5022803;28;20284;-71
2022/05/02 11:32:44;;;;;;;9.65;6.70;;;;;;;22.79;42.00;100597.75;5029953;28;20209;-71
2022/05/02 11:35:14;;;;;;;18.05;6.60;;;;;;;22.78;42.82;100589.88;5029200;28;20287;-71
2022/05/02 11:37:52;;;;;;;9.77;6.35;;;;;;;22.72;42.17;100593.44;5024969;28;20488;-69
2022/05/02 11:40:27;;;;;;;10.52;6.90;;;;;;;22.68;42.28;100590.38;5028738;28;20607;-72
2022/05/02 11:42:58;;;;;;;8.23;5.75;;;;;;;22.60;41.97;100593.38;5026432;28;20733;-73
2022/05/02 11:45:43;;;;;;;8.32;6.93;;;;;;;22.34;40.66;100588.22;5030177;28;20220;-72
2022/05/02 11:48:34;;;;;;;12.00;6.93;;;;;;;22.05;39.88;100590.53;5026101;28;20232;-72
2022/05/02 11:51:04;;;;;;;9.48;7.20;;;;;;;21.83;41.08;100581.13;5019487;28;20630;-72
2022/05/02 11:53:35;;;;;;;10.20;6.50;;;;;;;21.80;41.57;100584.28;5026271;28;20986;-72
2022/05/02 11:56:04;;;;;;;11.17;6.93;;;;;;;21.56;42.55;100590.44;5027938;28;20239;-72
2022/05/02 11:58:38;;;;;;;8.83;6.13;;;;;;;21.42;43.88;100581.59;5029233;28;20236;-72
2022/05/02 12:01:10;;;;;;;8.67;6.13;;;;;;;21.36;44.38;100586.00;5028128;28;20615;-72
2022/05/02 12:04:00;;;;;;;9.60;6.97;;;;;;;21.27;43.63;100581.91;5025454;28;20255;-72
2022/05/02 12:06:32;;;;;;;9.57;6.37;;;;;;;21.15;43.26;100578.19;5027402;28;20236;-72
2022/05/02 12:09:03;;;;;;;13.53;7.57;;;;;;;21.12;43.49;100585.84;5025098;28;20727;-72
2022/05/02 12:11:32;;;;;;;11.20;7.70;;;;;;;21.08;42.10;100580.09;5025540;28;20213;-72
2022/05/02 12:14:01;;;;;;;10.37;6.90;;;;;;;20.82;43.82;100583.72;5027046;28;20284;-72
2022/05/02 12:16:33;;;;;;;9.20;6.63;;;;;;;20.71;44.98;100588.91;5023866;28;20749;-73
2022/05/02 12:19:08;;;;;;;8.77;6.70;;;;;;;20.64;44.85;100578.16;5021852;28;20299;-71